sensor_id;sensor_type;location;lat;lon;timestamp;P1;durP1;ratioP1;P2;durP2;ratioP2
35612;SDS011;22054;51.646;7.078;2023-05-10T00:01:53;0.00;;;0.00;;
35612;SDS011;22054;51.646;7.078;2023-05-10T00:05:17;0.00;;;0.00;;
35612;SDS011;22054;51.646;7.078;2023-05-10T00:08:42;0.00;;;0.00;;
35612;SDS011;22054;51.646;7.078;2023-05-10T00:12:06;0.00;;;0.00;;
35612;SDS011;22054;51.646;7.078;2023-05-10T00:15:30;0.00;;;0.00;;
35612;SDS011;22054;51.646;7.078;2023-05-10T00:18:54;0.00;;;0.00;;
35612;SDS011;22054;51.646;7.078;2023-05-10T00:22:19;0.00;;;0.00;;
35612;SDS011;22054;51.646;7.078;2023-05-10T00:25:43;0.00;;;0.00;;
35612;SDS011;22054;51.646;7.078;2023-05-10T00:29:08;0.00;;;0.00;;
35612;SDS011;22054;51.646;7.078;2023-05-10T00:32:32;0.00;;;0.00;;
35612;SDS011;22054;51.646;7.078;2023-05-10T00:35:56;0.00;;;0.00;;
35612;SDS011;22054;51.646;7.078;2023-05-10T00:39:21;0.00;;;0.00;;
35612;SDS011;22054;51.646;7.078;2023-05-10T00:42:45;0.00;;;0.00;;
35612;SDS011;22054;51.646;7.078;2023-05-10T00:46:10;0.00;;;0.00;;
35612;SDS011;22054;51.646;7.078;2023-05-10T00:49:35;0.00;;;0.00;;
35612;SDS011;22054;51.646;7.078;2023-05-10T00:52:59;0.00;;;0.00;;
35612;SDS011;22054;51.646;7.078;2023-05-10T00:56:25;0.00;;;0.00;;
35612;SDS011;22054;51.646;7.078;2023-05-10T00:59:50;0.00;;;0.00;;
35612;SDS011;22054;51.646;7.078;2023-05-10T01:03:15;0.00;;;0.00;;
35612;SDS011;22054;51.646;7.078;2023-05-10T01:06:39;0.00;;;0.00;;
35612;SDS011;22054;51.646;7.078;2023-05-10T01:10:05;0.00;;;0.00;;
35612;SDS011;22054;51.646;7.078;2023-05-10T01:13:33;0.40;;;0.40;;
35612;SDS011;22054;51.646;7.078;2023-05-10T01:17:09;0.00;;;0.00;;
35612;SDS011;22054;51.646;7.078;2023-05-10T01:20:36;0.00;;;0.00;;
35612;SDS011;22054;51.646;7.078;2023-05-10T01:24:16;0.00;;;0.00;;
35612;SDS011;22054;51.646;7.078;2023-05-10T01:36:25;0.00;;;0.00;;
35612;SDS011;22054;51.646;7.078;2023-05-10T01:47:58;0.00;;;0.00;;
35612;SDS011;22054;51.646;7.078;2023-05-10T01:51:37;0.00;;;0.00;;
35612;SDS011;22054;51.646;7.078;2023-05-10T01:55:11;0.00;;;0.00;;
35612;SDS011;22054;51.646;7.078;2023-05-10T01:58:39;0.00;;;0.00;;
35612;SDS011;22054;51.646;7.078;2023-05-10T02:02:07;0.00;;;0.00;;
35612;SDS011;22054;51.646;7.078;2023-05-10T02:05:33;0.00;;;0.00;;
35612;SDS011;22054;51.646;7.078;2023-05-10T02:08:58;0.00;;;0.00;;
35612;SDS011;22054;51.646;7.078;2023-05-10T02:12:25;0.00;;;0.00;;
35612;SDS011;22054;51.646;7.078;2023-05-10T02:15:50;0.00;;;0.00;;
35612;SDS011;22054;51.646;7.078;2023-05-10T02:19:16;0.00;;;0.00;;
35612;SDS011;22054;51.646;7.078;2023-05-10T02:22:42;0.00;;;0.00;;
35612;SDS011;22054;51.646;7.078;2023-05-10T02:26:08;0.00;;;0.00;;
35612;SDS011;22054;51.646;7.078;2023-05-10T02:29:34;0.00;;;0.00;;
35612;SDS011;22054;51.646;7.078;2023-05-10T02:33:00;0.00;;;0.00;;
35612;SDS011;22054;51.646;7.078;2023-05-10T02:36:27;0.00;;;0.00;;
35612;SDS011;22054;51.646;7.078;2023-05-10T02:39:54;0.00;;;0.00;;
35612;SDS011;22054;51.646;7.078;2023-05-10T02:43:20;0.00;;;0.00;;
35612;SDS011;22054;51.646;7.078;2023-05-10T02:46:47;0.00;;;0.00;;
35612;SDS011;22054;51.646;7.078;2023-05-10T02:50:11;0.00;;;0.00;;
35612;SDS011;22054;51.646;7.078;2023-05-10T02:53:37;0.00;;;0.00;;
35612;SDS011;22054;51.646;7.078;2023-05-10T02:57:06;0.00;;;0.00;;
35612;SDS011;22054;51.646;7.078;2023-05-10T03:00:33;0.00;;;0.00;;
35612;SDS011;22054;51.646;7.078;2023-05-10T03:03:57;0.00;;;0.00;;
35612;SDS011;22054;51.646;7.078;2023-05-10T03:07:21;0.00;;;0.00;;
35612;SDS011;22054;51.646;7.078;2023-05-10T03:15:00;0.00;;;0.00;;
35612;SDS011;22054;51.646;7.078;2023-05-10T03:18:42;0.00;;;0.00;;
35612;SDS011;22054;51.646;7.078;2023-05-10T03:22:10;0.00;;;0.00;;
35612;SDS011;22054;51.646;7.078;2023-05-10T03:25:42;0.00;;;0.00;;
35612;SDS011;22054;51.646;7.078;2023-05-10T03:29:08;0.00;;;0.00;;
35612;SDS011;22054;51.646;7.078;2023-05-10T03:32:35;0.00;;;0.00;;
35612;SDS011;22054;51.646;7.078;2023-05-10T03:36:16;0.00;;;0.00;;
35612;SDS011;22054;51.646;7.078;2023-05-10T03:39:40;0.00;;;0.00;;
35612;SDS011;22054;51.646;7.078;2023-05-10T03:43:06;0.00;;;0.00;;
35612;SDS011;22054;51.646;7.078;2023-05-10T03:46:30;0.00;;;0.00;;
35612;SDS011;22054;51.646;7.078;2023-05-10T03:49:55;0.00;;;0.00;;
35612;SDS011;22054;51.646;7.078;2023-05-10T03:53:21;0.00;;;0.00;;
35612;SDS011;22054;51.646;7.078;2023-05-10T03:56:46;0.00;;;0.00;;
35612;SDS011;22054;51.646;7.078;2023-05-10T04:00:11;0.00;;;0.00;;
35612;SDS011;22054;51.646;7.078;2023-05-10T04:03:36;0.00;;;0.00;;
35612;SDS011;22054;51.646;7.078;2023-05-10T04:07:00;0.00;;;0.00;;
35612;SDS011;22054;51.646;7.078;2023-05-10T04:10:24;0.00;;;0.00;;
35612;SDS011;22054;51.646;7.078;2023-05-10T04:13:49;0.00;;;0.00;;
35612;SDS011;22054;51.646;7.078;2023-05-10T04:17:13;0.00;;;0.00;;
35612;SDS011;22054;51.646;7.078;2023-05-10T04:20:38;0.00;;;0.00;;
35612;SDS011;22054;51.646;7.078;2023-05-10T04:24:03;0.00;;;0.00;;
35612;SDS011;22054;51.646;7.078;2023-05-10T04:27:27;0.00;;;0.00;;
35612;SDS011;22054;51.646;7.078;2023-05-10T04:30:52;0.00;;;0.00;;
35612;SDS011;22054;51.646;7.078;2023-05-10T04:34:16;0.00;;;0.00;;
35612;SDS011;22054;51.646;7.078;2023-05-10T04:37:40;0.00;;;0.00;;
35612;SDS011;22054;51.646;7.078;2023-05-10T04:41:08;0.00;;;0.00;;
35612;SDS011;22054;51.646;7.078;2023-05-10T04:44:33;0.00;;;0.00;;
35612;SDS011;22054;51.646;7.078;2023-05-10T04:47:58;0.00;;;0.00;;
35612;SDS011;22054;51.646;7.078;2023-05-10T04:51:22;0.00;;;0.00;;
35612;SDS011;22054;51.646;7.078;2023-05-10T04:54:46;0.00;;;0.00;;
35612;SDS011;22054;51.646;7.078;2023-05-10T04:58:11;0.00;;;0.00;;
35612;SDS011;22054;51.646;7.078;2023-05-10T05:01:35;0.00;;;0.00;;
35612;SDS011;22054;51.646;7.078;2023-05-10T05:05:00;0.00;;;0.00;;
35612;SDS011;22054;51.646;7.078;2023-05-10T05:08:24;0.00;;;0.00;;
35612;SDS011;22054;51.646;7.078;2023-05-10T05:11:48;0.00;;;0.00;;
35612;SDS011;22054;51.646;7.078;2023-05-10T05:15:12;0.00;;;0.00;;
35612;SDS011;22054;51.646;7.078;2023-05-10T05:18:37;0.00;;;0.00;;
35612;SDS011;22054;51.646;7.078;2023-05-10T05:22:01;0.00;;;0.00;;
35612;SDS011;22054;51.646;7.078;2023-05-10T05:25:26;0.00;;;0.00;;
35612;SDS011;22054;51.646;7.078;2023-05-10T05:28:51;0.00;;;0.00;;
35612;SDS011;22054;51.646;7.078;2023-05-10T05:32:16;0.00;;;0.00;;
35612;SDS011;22054;51.646;7.078;2023-05-10T05:35:40;0.00;;;0.00;;
35612;SDS011;22054;51.646;7.078;2023-05-10T05:39:05;0.00;;;0.00;;
35612;SDS011;22054;51.646;7.078;2023-05-10T05:42:30;0.00;;;0.00;;
35612;SDS011;22054;51.646;7.078;2023-05-10T05:45:55;0.00;;;0.00;;
35612;SDS011;22054;51.646;7.078;2023-05-10T05:49:19;0.00;;;0.00;;
35612;SDS011;22054;51.646;7.078;2023-05-10T05:52:43;0.00;;;0.00;;
35612;SDS011;22054;51.646;7.078;2023-05-10T05:56:07;0.00;;;0.00;;
35612;SDS011;22054;51.646;7.078;2023-05-10T05:59:32;0.00;;;0.00;;
35612;SDS011;22054;51.646;7.078;2023-05-10T06:02:56;0.00;;;0.00;;
35612;SDS011;22054;51.646;7.078;2023-05-10T06:06:20;0.00;;;0.00;;
35612;SDS011;22054;51.646;7.078;2023-05-10T06:09:45;0.00;;;0.00;;
35612;SDS011;22054;51.646;7.078;2023-05-10T06:13:10;0.00;;;0.00;;
35612;SDS011;22054;51.646;7.078;2023-05-10T06:16:34;0.00;;;0.00;;
35612;SDS011;22054;51.646;7.078;2023-05-10T06:19:58;0.00;;;0.00;;
35612;SDS011;22054;51.646;7.078;2023-05-10T06:23:23;0.00;;;0.00;;
35612;SDS011;22054;51.646;7.078;2023-05-10T06:26:47;0.00;;;0.00;;
35612;SDS011;22054;51.646;7.078;2023-05-10T06:30:11;0.00;;;0.00;;
35612;SDS011;22054;51.646;7.078;2023-05-10T06:33:36;0.00;;;0.00;;
35612;SDS011;22054;51.646;7.078;2023-05-10T06:37:01;0.00;;;0.00;;
35612;SDS011;22054;51.646;7.078;2023-05-10T06:40:25;0.00;;;0.00;;
35612;SDS011;22054;51.646;7.078;2023-05-10T06:43:49;0.00;;;0.00;;
35612;SDS011;22054;51.646;7.078;2023-05-10T06:47:13;0.00;;;0.00;;
35612;SDS011;22054;51.646;7.078;2023-05-10T06:50:38;0.00;;;0.00;;
35612;SDS011;22054;51.646;7.078;2023-05-10T06:54:03;0.00;;;0.00;;
35612;SDS011;22054;51.646;7.078;2023-05-10T06:57:28;0.00;;;0.00;;
35612;SDS011;22054;51.646;7.078;2023-05-10T07:00:52;0.00;;;0.00;;
35612;SDS011;22054;51.646;7.078;2023-05-10T07:04:17;0.00;;;0.00;;
35612;SDS011;22054;51.646;7.078;2023-05-10T07:07:41;0.00;;;0.00;;
35612;SDS011;22054;51.646;7.078;2023-05-10T07:11:06;0.00;;;0.00;;
35612;SDS011;22054;51.646;7.078;2023-05-10T07:14:30;0.00;;;0.00;;
35612;SDS011;22054;51.646;7.078;2023-05-10T07:17:54;0.00;;;0.00;;
35612;SDS011;22054;51.646;7.078;2023-05-10T07:21:18;0.00;;;0.00;;
35612;SDS011;22054;51.646;7.078;2023-05-10T07:24:43;0.00;;;0.00;;
35612;SDS011;22054;51.646;7.078;2023-05-10T07:28:08;0.00;;;0.00;;
35612;SDS011;22054;51.646;7.078;2023-05-10T07:31:32;0.00;;;0.00;;
35612;SDS011;22054;51.646;7.078;2023-05-10T07:34:56;0.00;;;0.00;;
35612;SDS011;22054;51.646;7.078;2023-05-10T07:38:20;0.00;;;0.00;;
35612;SDS011;22054;51.646;7.078;2023-05-10T07:41:48;0.00;;;0.00;;
35612;SDS011;22054;51.646;7.078;2023-05-10T07:45:12;0.00;;;0.00;;
35612;SDS011;22054;51.646;7.078;2023-05-10T07:48:36;0.00;;;0.00;;
35612;SDS011;22054;51.646;7.078;2023-05-10T07:52:02;0.00;;;0.00;;
35612;SDS011;22054;51.646;7.078;2023-05-10T07:55:27;0.00;;;0.00;;
35612;SDS011;22054;51.646;7.078;2023-05-10T07:58:54;0.00;;;0.00;;
35612;SDS011;22054;51.646;7.078;2023-05-10T08:02:22;0.00;;;0.00;;
35612;SDS011;22054;51.646;7.078;2023-05-10T08:05:47;0.00;;;0.00;;
35612;SDS011;22054;51.646;7.078;2023-05-10T08:09:11;0.00;;;0.00;;
35612;SDS011;22054;51.646;7.078;2023-05-10T08:12:38;0.00;;;0.00;;
35612;SDS011;22054;51.646;7.078;2023-05-10T08:16:02;0.00;;;0.00;;
35612;SDS011;22054;51.646;7.078;2023-05-10T08:19:28;0.00;;;0.00;;
35612;SDS011;22054;51.646;7.078;2023-05-10T08:22:52;0.00;;;0.00;;
35612;SDS011;22054;51.646;7.078;2023-05-10T08:26:16;0.00;;;0.00;;
35612;SDS011;22054;51.646;7.078;2023-05-10T08:29:40;0.00;;;0.00;;
35612;SDS011;22054;51.646;7.078;2023-05-10T08:33:04;0.00;;;0.00;;
35612;SDS011;22054;51.646;7.078;2023-05-10T08:36:29;0.00;;;0.00;;
35612;SDS011;22054;51.646;7.078;2023-05-10T08:39:54;0.00;;;0.00;;
35612;SDS011;22054;51.646;7.078;2023-05-10T08:43:21;0.00;;;0.00;;
35612;SDS011;22054;51.646;7.078;2023-05-10T08:46:48;0.00;;;0.00;;
35612;SDS011;22054;51.646;7.078;2023-05-10T08:50:14;0.00;;;0.00;;
35612;SDS011;22054;51.646;7.078;2023-05-10T08:53:42;0.00;;;0.00;;
35612;SDS011;22054;51.646;7.078;2023-05-10T08:57:08;0.00;;;0.00;;
35612;SDS011;22054;51.646;7.078;2023-05-10T09:00:34;0.00;;;0.00;;
35612;SDS011;22054;51.646;7.078;2023-05-10T09:03:58;0.00;;;0.00;;
35612;SDS011;22054;51.646;7.078;2023-05-10T09:07:23;0.00;;;0.00;;
35612;SDS011;22054;51.646;7.078;2023-05-10T09:10:51;0.00;;;0.00;;
35612;SDS011;22054;51.646;7.078;2023-05-10T09:14:16;0.00;;;0.00;;
35612;SDS011;22054;51.646;7.078;2023-05-10T09:17:44;0.00;;;0.00;;
35612;SDS011;22054;51.646;7.078;2023-05-10T09:21:09;0.00;;;0.00;;
35612;SDS011;22054;51.646;7.078;2023-05-10T09:24:34;0.00;;;0.00;;
35612;SDS011;22054;51.646;7.078;2023-05-10T09:27:59;0.00;;;0.00;;
35612;SDS011;22054;51.646;7.078;2023-05-10T09:31:24;0.00;;;0.00;;
35612;SDS011;22054;51.646;7.078;2023-05-10T09:35:05;0.00;;;0.00;;
35612;SDS011;22054;51.646;7.078;2023-05-10T09:42:17;0.00;;;0.00;;
35612;SDS011;22054;51.646;7.078;2023-05-10T09:45:42;0.00;;;0.00;;
35612;SDS011;22054;51.646;7.078;2023-05-10T09:49:06;0.00;;;0.00;;
35612;SDS011;22054;51.646;7.078;2023-05-10T09:52:31;0.00;;;0.00;;
35612;SDS011;22054;51.646;7.078;2023-05-10T09:56:32;0.00;;;0.00;;
35612;SDS011;22054;51.646;7.078;2023-05-10T10:03:23;0.00;;;0.00;;
35612;SDS011;22054;51.646;7.078;2023-05-10T10:06:57;0.00;;;0.00;;
35612;SDS011;22054;51.646;7.078;2023-05-10T10:10:30;0.00;;;0.00;;
35612;SDS011;22054;51.646;7.078;2023-05-10T10:13:56;0.00;;;0.00;;
35612;SDS011;22054;51.646;7.078;2023-05-10T10:17:20;0.00;;;0.00;;
35612;SDS011;22054;51.646;7.078;2023-05-10T10:20:48;0.00;;;0.00;;
35612;SDS011;22054;51.646;7.078;2023-05-10T10:24:14;0.00;;;0.00;;
35612;SDS011;22054;51.646;7.078;2023-05-10T10:27:43;0.00;;;0.00;;
35612;SDS011;22054;51.646;7.078;2023-05-10T10:31:27;0.00;;;0.00;;
35612;SDS011;22054;51.646;7.078;2023-05-10T10:35:08;0.00;;;0.00;;
35612;SDS011;22054;51.646;7.078;2023-05-10T10:42:16;0.00;;;0.00;;
35612;SDS011;22054;51.646;7.078;2023-05-10T10:46:15;0.00;;;0.00;;
35612;SDS011;22054;51.646;7.078;2023-05-10T10:49:49;0.00;;;0.00;;
35612;SDS011;22054;51.646;7.078;2023-05-10T10:53:21;0.00;;;0.00;;
35612;SDS011;22054;51.646;7.078;2023-05-10T10:57:11;0.00;;;0.00;;
35612;SDS011;22054;51.646;7.078;2023-05-10T11:00:36;0.00;;;0.00;;
35612;SDS011;22054;51.646;7.078;2023-05-10T11:07:56;0.00;;;0.00;;
35612;SDS011;22054;51.646;7.078;2023-05-10T11:11:23;0.00;;;0.00;;
35612;SDS011;22054;51.646;7.078;2023-05-10T11:14:50;0.00;;;0.00;;
35612;SDS011;22054;51.646;7.078;2023-05-10T11:18:19;0.00;;;0.00;;
35612;SDS011;22054;51.646;7.078;2023-05-10T11:21:47;0.00;;;0.00;;
35612;SDS011;22054;51.646;7.078;2023-05-10T11:25:14;0.00;;;0.00;;
35612;SDS011;22054;51.646;7.078;2023-05-10T11:28:42;0.00;;;0.00;;
35612;SDS011;22054;51.646;7.078;2023-05-10T11:32:08;0.00;;;0.00;;
35612;SDS011;22054;51.646;7.078;2023-05-10T11:35:39;0.10;;;0.10;;
35612;SDS011;22054;51.646;7.078;2023-05-10T11:39:04;0.10;;;0.10;;
35612;SDS011;22054;51.646;7.078;2023-05-10T11:42:29;0.10;;;0.10;;
35612;SDS011;22054;51.646;7.078;2023-05-10T11:46:10;0.10;;;0.10;;
35612;SDS011;22054;51.646;7.078;2023-05-10T11:49:35;0.17;;;0.17;;
35612;SDS011;22054;51.646;7.078;2023-05-10T11:56:38;0.10;;;0.10;;
35612;SDS011;22054;51.646;7.078;2023-05-10T12:00:21;0.13;;;0.13;;
35612;SDS011;22054;51.646;7.078;2023-05-10T12:03:55;0.10;;;0.10;;
35612;SDS011;22054;51.646;7.078;2023-05-10T12:07:27;0.20;;;0.20;;
35612;SDS011;22054;51.646;7.078;2023-05-10T12:10:53;0.20;;;0.20;;
35612;SDS011;22054;51.646;7.078;2023-05-10T12:14:38;0.10;;;0.10;;
35612;SDS011;22054;51.646;7.078;2023-05-10T12:18:04;0.10;;;0.10;;
35612;SDS011;22054;51.646;7.078;2023-05-10T12:21:32;0.00;;;0.00;;
35612;SDS011;22054;51.646;7.078;2023-05-10T12:25:22;0.00;;;0.00;;
35612;SDS011;22054;51.646;7.078;2023-05-10T12:33:24;0.10;;;0.10;;
35612;SDS011;22054;51.646;7.078;2023-05-10T12:37:35;0.00;;;0.00;;
35612;SDS011;22054;51.646;7.078;2023-05-10T12:41:45;0.10;;;0.10;;
35612;SDS011;22054;51.646;7.078;2023-05-10T12:45:39;0.10;;;0.10;;
35612;SDS011;22054;51.646;7.078;2023-05-10T12:49:12;0.00;;;0.00;;
35612;SDS011;22054;51.646;7.078;2023-05-10T12:52:59;1.30;;;1.30;;
35612;SDS011;22054;51.646;7.078;2023-05-10T12:57:44;0.00;;;0.00;;
35612;SDS011;22054;51.646;7.078;2023-05-10T13:01:46;0.00;;;0.00;;
35612;SDS011;22054;51.646;7.078;2023-05-10T13:05:18;0.00;;;0.00;;
35612;SDS011;22054;51.646;7.078;2023-05-10T13:08:43;0.00;;;0.00;;
35612;SDS011;22054;51.646;7.078;2023-05-10T13:12:08;0.00;;;0.00;;
35612;SDS011;22054;51.646;7.078;2023-05-10T13:15:33;0.00;;;0.00;;
35612;SDS011;22054;51.646;7.078;2023-05-10T13:18:57;0.00;;;0.00;;
35612;SDS011;22054;51.646;7.078;2023-05-10T13:22:22;0.00;;;0.00;;
35612;SDS011;22054;51.646;7.078;2023-05-10T13:25:46;0.00;;;0.00;;
35612;SDS011;22054;51.646;7.078;2023-05-10T13:29:11;0.00;;;0.00;;
35612;SDS011;22054;51.646;7.078;2023-05-10T13:32:36;0.95;;;0.77;;
35612;SDS011;22054;51.646;7.078;2023-05-10T13:36:04;6.45;;;6.25;;
35612;SDS011;22054;51.646;7.078;2023-05-10T13:39:52;6.70;;;6.40;;
35612;SDS011;22054;51.646;7.078;2023-05-10T13:43:19;6.30;;;6.10;;
35612;SDS011;22054;51.646;7.078;2023-05-10T13:46:52;6.30;;;6.10;;
35612;SDS011;22054;51.646;7.078;2023-05-10T13:50:35;6.45;;;6.25;;
35612;SDS011;22054;51.646;7.078;2023-05-10T13:54:08;6.85;;;6.55;;
35612;SDS011;22054;51.646;7.078;2023-05-10T13:57:48;6.60;;;6.30;;
35612;SDS011;22054;51.646;7.078;2023-05-10T14:01:47;7.07;;;6.78;;
35612;SDS011;22054;51.646;7.078;2023-05-10T14:08:53;6.85;;;6.55;;
35612;SDS011;22054;51.646;7.078;2023-05-10T14:12:18;6.65;;;6.35;;
35612;SDS011;22054;51.646;7.078;2023-05-10T14:15:42;6.90;;;6.60;;
35612;SDS011;22054;51.646;7.078;2023-05-10T14:19:09;6.80;;;6.50;;
35612;SDS011;22054;51.646;7.078;2023-05-10T14:22:33;7.13;;;6.82;;
35612;SDS011;22054;51.646;7.078;2023-05-10T14:25:58;6.00;;;5.80;;
35612;SDS011;22054;51.646;7.078;2023-05-10T14:29:22;6.68;;;6.38;;
35612;SDS011;22054;51.646;7.078;2023-05-10T14:36:11;6.38;;;6.18;;
35612;SDS011;22054;51.646;7.078;2023-05-10T14:39:36;1.17;;;1.17;;
35612;SDS011;22054;51.646;7.078;2023-05-10T14:43:00;2.53;;;2.42;;
35612;SDS011;22054;51.646;7.078;2023-05-10T14:46:25;0.00;;;0.00;;
35612;SDS011;22054;51.646;7.078;2023-05-10T14:49:49;0.00;;;0.00;;
35612;SDS011;22054;51.646;7.078;2023-05-10T14:53:15;0.60;;;0.60;;
35612;SDS011;22054;51.646;7.078;2023-05-10T14:56:40;0.10;;;0.00;;
35612;SDS011;22054;51.646;7.078;2023-05-10T15:00:04;5.70;;;5.50;;
35612;SDS011;22054;51.646;7.078;2023-05-10T15:03:31;6.18;;;5.97;;
35612;SDS011;22054;51.646;7.078;2023-05-10T15:06:55;6.43;;;6.22;;
35612;SDS011;22054;51.646;7.078;2023-05-10T15:10:19;5.85;;;5.65;;
35612;SDS011;22054;51.646;7.078;2023-05-10T15:13:43;5.68;;;5.47;;
35612;SDS011;22054;51.646;7.078;2023-05-10T15:17:07;0.00;;;0.00;;
35612;SDS011;22054;51.646;7.078;2023-05-10T15:20:33;0.00;;;0.00;;
35612;SDS011;22054;51.646;7.078;2023-05-10T15:24:03;0.00;;;0.00;;
35612;SDS011;22054;51.646;7.078;2023-05-10T15:27:38;0.15;;;0.10;;
35612;SDS011;22054;51.646;7.078;2023-05-10T15:31:02;0.00;;;0.00;;
35612;SDS011;22054;51.646;7.078;2023-05-10T15:34:26;0.00;;;0.00;;
35612;SDS011;22054;51.646;7.078;2023-05-10T15:37:51;0.00;;;0.00;;
35612;SDS011;22054;51.646;7.078;2023-05-10T15:44:39;0.00;;;0.00;;
35612;SDS011;22054;51.646;7.078;2023-05-10T15:48:04;0.00;;;0.00;;
35612;SDS011;22054;51.646;7.078;2023-05-10T15:51:28;0.00;;;0.00;;
35612;SDS011;22054;51.646;7.078;2023-05-10T15:54:52;0.00;;;0.00;;
35612;SDS011;22054;51.646;7.078;2023-05-10T15:58:16;0.00;;;0.00;;
35612;SDS011;22054;51.646;7.078;2023-05-10T16:01:41;0.00;;;0.00;;
35612;SDS011;22054;51.646;7.078;2023-05-10T16:05:06;0.00;;;0.00;;
35612;SDS011;22054;51.646;7.078;2023-05-10T16:08:31;0.00;;;0.00;;
35612;SDS011;22054;51.646;7.078;2023-05-10T16:11:55;0.00;;;0.00;;
35612;SDS011;22054;51.646;7.078;2023-05-10T16:15:19;0.00;;;0.00;;
35612;SDS011;22054;51.646;7.078;2023-05-10T16:18:43;0.00;;;0.00;;
35612;SDS011;22054;51.646;7.078;2023-05-10T16:22:07;0.40;;;0.40;;
35612;SDS011;22054;51.646;7.078;2023-05-10T16:25:33;0.40;;;0.40;;
35612;SDS011;22054;51.646;7.078;2023-05-10T16:29:03;0.00;;;0.00;;
35612;SDS011;22054;51.646;7.078;2023-05-10T16:32:28;0.00;;;0.00;;
35612;SDS011;22054;51.646;7.078;2023-05-10T16:35:52;0.00;;;0.00;;
35612;SDS011;22054;51.646;7.078;2023-05-10T16:39:16;0.00;;;0.00;;
35612;SDS011;22054;51.646;7.078;2023-05-10T16:42:41;0.25;;;0.25;;
35612;SDS011;22054;51.646;7.078;2023-05-10T16:46:08;0.00;;;0.00;;
35612;SDS011;22054;51.646;7.078;2023-05-10T16:49:38;0.00;;;0.00;;
35612;SDS011;22054;51.646;7.078;2023-05-10T16:53:02;0.00;;;0.00;;
35612;SDS011;22054;51.646;7.078;2023-05-10T16:56:26;0.00;;;0.00;;
35612;SDS011;22054;51.646;7.078;2023-05-10T16:59:52;0.00;;;0.00;;
35612;SDS011;22054;51.646;7.078;2023-05-10T17:03:16;0.00;;;0.00;;
35612;SDS011;22054;51.646;7.078;2023-05-10T17:06:40;0.00;;;0.00;;
35612;SDS011;22054;51.646;7.078;2023-05-10T17:10:04;0.00;;;0.00;;
35612;SDS011;22054;51.646;7.078;2023-05-10T17:13:29;0.00;;;0.00;;
35612;SDS011;22054;51.646;7.078;2023-05-10T17:16:54;0.00;;;0.00;;
35612;SDS011;22054;51.646;7.078;2023-05-10T17:20:19;0.00;;;0.00;;
35612;SDS011;22054;51.646;7.078;2023-05-10T17:23:43;0.00;;;0.00;;
35612;SDS011;22054;51.646;7.078;2023-05-10T17:27:07;0.00;;;0.00;;
35612;SDS011;22054;51.646;7.078;2023-05-10T17:30:31;0.00;;;0.00;;
35612;SDS011;22054;51.646;7.078;2023-05-10T17:33:56;0.00;;;0.00;;
35612;SDS011;22054;51.646;7.078;2023-05-10T17:37:35;0.00;;;0.00;;
35612;SDS011;22054;51.646;7.078;2023-05-10T17:40:59;0.00;;;0.00;;
35612;SDS011;22054;51.646;7.078;2023-05-10T17:44:36;0.00;;;0.00;;
35612;SDS011;22054;51.646;7.078;2023-05-10T17:48:00;0.00;;;0.00;;
35612;SDS011;22054;51.646;7.078;2023-05-10T17:51:33;0.00;;;0.00;;
35612;SDS011;22054;51.646;7.078;2023-05-10T17:54:58;0.00;;;0.00;;
35612;SDS011;22054;51.646;7.078;2023-05-10T17:58:33;0.00;;;0.00;;
35612;SDS011;22054;51.646;7.078;2023-05-10T18:02:05;0.00;;;0.00;;
35612;SDS011;22054;51.646;7.078;2023-05-10T18:05:29;0.00;;;0.00;;
35612;SDS011;22054;51.646;7.078;2023-05-10T18:08:54;0.00;;;0.00;;
35612;SDS011;22054;51.646;7.078;2023-05-10T18:12:18;0.00;;;0.00;;
35612;SDS011;22054;51.646;7.078;2023-05-10T18:15:42;0.00;;;0.00;;
35612;SDS011;22054;51.646;7.078;2023-05-10T18:19:07;0.00;;;0.00;;
35612;SDS011;22054;51.646;7.078;2023-05-10T18:22:32;0.00;;;0.00;;
35612;SDS011;22054;51.646;7.078;2023-05-10T18:25:56;0.00;;;0.00;;
35612;SDS011;22054;51.646;7.078;2023-05-10T18:29:20;0.00;;;0.00;;
35612;SDS011;22054;51.646;7.078;2023-05-10T18:36:12;0.00;;;0.00;;
35612;SDS011;22054;51.646;7.078;2023-05-10T18:39:38;0.00;;;0.00;;
35612;SDS011;22054;51.646;7.078;2023-05-10T18:43:02;0.00;;;0.00;;
35612;SDS011;22054;51.646;7.078;2023-05-10T18:46:27;0.00;;;0.00;;
35612;SDS011;22054;51.646;7.078;2023-05-10T18:49:51;0.00;;;0.00;;
35612;SDS011;22054;51.646;7.078;2023-05-10T18:53:15;0.00;;;0.00;;
35612;SDS011;22054;51.646;7.078;2023-05-10T18:56:40;0.00;;;0.00;;
35612;SDS011;22054;51.646;7.078;2023-05-10T19:00:07;0.00;;;0.00;;
35612;SDS011;22054;51.646;7.078;2023-05-10T19:03:33;0.00;;;0.00;;
35612;SDS011;22054;51.646;7.078;2023-05-10T19:06:58;0.00;;;0.00;;
35612;SDS011;22054;51.646;7.078;2023-05-10T19:10:22;0.00;;;0.00;;
35612;SDS011;22054;51.646;7.078;2023-05-10T19:13:46;0.00;;;0.00;;
35612;SDS011;22054;51.646;7.078;2023-05-10T19:17:11;0.00;;;0.00;;
35612;SDS011;22054;51.646;7.078;2023-05-10T19:20:35;0.00;;;0.00;;
35612;SDS011;22054;51.646;7.078;2023-05-10T19:23:59;0.00;;;0.00;;
35612;SDS011;22054;51.646;7.078;2023-05-10T19:27:24;0.00;;;0.00;;
35612;SDS011;22054;51.646;7.078;2023-05-10T19:30:48;0.00;;;0.00;;
35612;SDS011;22054;51.646;7.078;2023-05-10T19:34:13;0.00;;;0.00;;
35612;SDS011;22054;51.646;7.078;2023-05-10T19:37:37;0.00;;;0.00;;
35612;SDS011;22054;51.646;7.078;2023-05-10T19:41:02;0.00;;;0.00;;
35612;SDS011;22054;51.646;7.078;2023-05-10T19:44:27;0.00;;;0.00;;
35612;SDS011;22054;51.646;7.078;2023-05-10T19:47:51;0.00;;;0.00;;
35612;SDS011;22054;51.646;7.078;2023-05-10T19:51:15;0.00;;;0.00;;
35612;SDS011;22054;51.646;7.078;2023-05-10T19:54:40;0.00;;;0.00;;
35612;SDS011;22054;51.646;7.078;2023-05-10T19:58:04;0.00;;;0.00;;
35612;SDS011;22054;51.646;7.078;2023-05-10T20:04:57;0.00;;;0.00;;
35612;SDS011;22054;51.646;7.078;2023-05-10T20:08:22;0.00;;;0.00;;
35612;SDS011;22054;51.646;7.078;2023-05-10T20:11:47;0.00;;;0.00;;
35612;SDS011;22054;51.646;7.078;2023-05-10T20:15:15;0.00;;;0.00;;
35612;SDS011;22054;51.646;7.078;2023-05-10T20:18:40;0.00;;;0.00;;
35612;SDS011;22054;51.646;7.078;2023-05-10T20:22:09;0.00;;;0.00;;
35612;SDS011;22054;51.646;7.078;2023-05-10T20:25:34;0.00;;;0.00;;
35612;SDS011;22054;51.646;7.078;2023-05-10T20:28:58;0.00;;;0.00;;
35612;SDS011;22054;51.646;7.078;2023-05-10T20:32:22;0.00;;;0.00;;
35612;SDS011;22054;51.646;7.078;2023-05-10T20:35:46;0.00;;;0.00;;
35612;SDS011;22054;51.646;7.078;2023-05-10T20:39:11;0.00;;;0.00;;
35612;SDS011;22054;51.646;7.078;2023-05-10T20:42:35;0.00;;;0.00;;
35612;SDS011;22054;51.646;7.078;2023-05-10T20:46:00;0.00;;;0.00;;
35612;SDS011;22054;51.646;7.078;2023-05-10T20:49:24;0.00;;;0.00;;
35612;SDS011;22054;51.646;7.078;2023-05-10T20:52:48;0.00;;;0.00;;
35612;SDS011;22054;51.646;7.078;2023-05-10T20:56:13;0.00;;;0.00;;
35612;SDS011;22054;51.646;7.078;2023-05-10T20:59:37;0.00;;;0.00;;
35612;SDS011;22054;51.646;7.078;2023-05-10T21:03:01;0.00;;;0.00;;
35612;SDS011;22054;51.646;7.078;2023-05-10T21:06:25;0.00;;;0.00;;
35612;SDS011;22054;51.646;7.078;2023-05-10T21:09:50;0.00;;;0.00;;
35612;SDS011;22054;51.646;7.078;2023-05-10T21:13:14;0.00;;;0.00;;
35612;SDS011;22054;51.646;7.078;2023-05-10T21:16:38;0.00;;;0.00;;
35612;SDS011;22054;51.646;7.078;2023-05-10T21:20:02;0.00;;;0.00;;
35612;SDS011;22054;51.646;7.078;2023-05-10T21:23:27;0.00;;;0.00;;
35612;SDS011;22054;51.646;7.078;2023-05-10T21:26:51;0.00;;;0.00;;
35612;SDS011;22054;51.646;7.078;2023-05-10T21:30:15;0.00;;;0.00;;
35612;SDS011;22054;51.646;7.078;2023-05-10T21:33:40;0.00;;;0.00;;
35612;SDS011;22054;51.646;7.078;2023-05-10T21:37:04;0.00;;;0.00;;
35612;SDS011;22054;51.646;7.078;2023-05-10T21:40:28;0.00;;;0.00;;
35612;SDS011;22054;51.646;7.078;2023-05-10T21:43:52;0.20;;;0.20;;
35612;SDS011;22054;51.646;7.078;2023-05-10T21:47:17;0.00;;;0.00;;
35612;SDS011;22054;51.646;7.078;2023-05-10T21:50:42;0.80;;;0.80;;